Grimston, United Kingdom
Current Conditions -  °F | °C
As of 5:50 AM on Saturday 20 Dec 2014 (Local Time) from EGNX Reporting Station
Scattered Clouds Scattered Clouds  
Wind Chill: 35°   Ceiling: Unl
Heat Index: 45°   Visibility: 6mi
Dew Point: 37°   Wind: 26mph
Humidity: 76%   Direction: 260°W
Pressure: 30.12"   Gusts: NA
Location:  52.79°N, 0.99°W
Report Text: EGNX 200550Z 26023KT 9999 SCT029 07/03 Q1020
Loading
Personal Weather Stations






























Interactive Weather Map New forecast layout! Learn more

10-Day Weather Forecast

Advertisements
Track Severe Weather on mobile